Thunder radar more information blitzortung!


Radar de pluja more information rain snow radar


Visita la nostra xarxa de llocs de meteo:

Template documentation
and downloads

And another site



No particular awareness of the weather is required.    There are no Weather-warnings

Pagina Historial Weather Underground text

Diari Resum May 17, 2017 Unitats:  Imperial    Mètric   Tant
« Previous Dia
SegĂźent Dia »
Diari Setmana Mensual Anual Personalitzada
  Maxima: Minima: Media:
Temperatura: TemperatureC °F 14.2 °F 22.5 °F
Punt de rosada: DewpointC °F 4.0 °F 7.5 °F
Humitat: Humidity % 25 % 40 %
Wind Speed: WindSpeedKMH mph 0.0 mph 5.6 mph
RĂ fegues de vent: WindSpeedGustKMH mph - -
Vent:- - SSW
Pression baro: PressurehPa in 1013.8 in -
Precipitacions: 0.0 in    
Historical Graphs
 
 
Dades de taula per May 17, 2017
Temps Temperatura Punt de rosada Pression baro Vent Wind Speed RĂ fegues de vent Humitat Rainfall Rate (Hourly)
TemperatureC °F DewpointC °F PressurehPa in Calm     Humidity % HourlyPrecipMM in
00:02 18.9 °F 9.1 °F 1026.0 in SW 3.7 mph 3.7 mph 53 % 0.0 in
00:05 15.0 °F 8.7 °F 1023.9 in Calm     66 % 0.0 in
00:07 18.9 °F 9.1 °F 1026.0 in WSW 2.6 mph 2.6 mph 53 % 0.0 in
00:15 15.0 °F 8.7 °F 1022.9 in Calm     66 % 0.0 in
00:25 15.1 °F 9.0 °F 1023.9 in Calm     67 % 0.0 in
00:35 15.2 °F 9.3 °F 1023.9 in Calm     68 % 0.0 in
00:45 15.2 °F 9.3 °F 1022.9 in Calm     68 % 0.0 in
00:55 15.1 °F 9.0 °F 1022.9 in Calm     67 % 0.0 in
01:05 15.0 °F 8.9 °F 1022.9 in Calm     67 % 0.0 in
01:15 14.6 °F 8.6 °F 1022.9 in Calm     67 % 0.0 in
01:25 14.6 °F 8.8 °F 1022.9 in Calm   1.6 mph 68 % 0.0 in
01:35 14.5 °F 8.7 °F 1022.9 in Calm     68 % 0.0 in
01:45 14.4 °F 8.6 °F 1022.9 in Calm   3.2 mph 68 % 0.0 in
01:55 14.2 °F 8.4 °F 1022.9 in SE 3.2 mph 3.2 mph 68 % 0.0 in
02:05 14.3 °F 8.4 °F 1022.9 in Calm   1.6 mph 68 % 0.0 in
02:15 14.5 °F 8.4 °F 1022.9 in SW 1.6 mph 3.2 mph 67 % 0.0 in
02:25 15.0 °F 8.7 °F 1022.9 in Calm   1.6 mph 66 % 0.0 in
02:35 15.6 °F 8.8 °F 1022.9 in Calm     64 % 0.0 in
02:45 16.6 °F 9.8 °F 1022.9 in Calm     64 % 0.0 in
02:55 17.4 °F 10.1 °F 1022.9 in Calm     62 % 0.0 in
03:05 17.0 °F 9.4 °F 1022.9 in Calm   3.2 mph 61 % 0.0 in
03:15 17.9 °F 10.3 °F 1021.9 in Calm   3.2 mph 61 % 0.0 in
03:25 18.3 °F 10.2 °F 1021.9 in SSE 1.6 mph 3.2 mph 59 % 0.0 in
03:35 17.8 °F 9.7 °F 1021.9 in SSW 3.2 mph 3.2 mph 59 % 0.0 in
03:45 17.9 °F 9.5 °F 1021.9 in Calm   3.2 mph 58 % 0.0 in
03:55 18.8 °F 10.3 °F 1021.9 in SSW 1.6 mph 3.2 mph 58 % 0.0 in
04:05 19.6 °F 10.6 °F 1021.9 in South 1.6 mph 3.2 mph 56 % 0.0 in
04:15 20.0 °F 10.7 °F 1021.9 in South 1.6 mph 3.2 mph 55 % 0.0 in
04:25 20.9 °F 11.2 °F 1021.9 in South 1.6 mph 3.2 mph 54 % 0.0 in
04:35 21.0 °F 10.8 °F 1021.9 in ENE 1.6 mph 4.8 mph 52 % 0.0 in
04:45 21.5 °F 11.2 °F 1021.9 in NE 1.6 mph 3.2 mph 52 % 0.0 in
04:55 22.1 °F 11.5 °F 1021.9 in ENE 3.2 mph 3.2 mph 51 % 0.0 in
05:05 22.6 °F 11.7 °F 1021.9 in ESE 1.6 mph 3.2 mph 50 % 0.0 in
05:15 23.3 °F 12.0 °F 1021.9 in Calm   3.2 mph 49 % 0.0 in
05:25 22.9 °F 11.6 °F 1021.9 in ENE 3.2 mph 4.8 mph 49 % 0.0 in
05:35 23.7 °F 11.7 °F 1021.9 in East 3.2 mph 3.2 mph 47 % 0.0 in
05:45 23.8 °F 11.2 °F 1021.9 in ESE 1.6 mph 4.8 mph 45 % 0.0 in
05:55 24.0 °F 11.3 °F 1021.9 in East 1.6 mph 4.8 mph 45 % 0.0 in
06:05 24.5 °F 11.4 °F 1021.9 in East 3.2 mph 4.8 mph 44 % 0.0 in
06:15 24.4 °F 10.7 °F 1021.9 in ENE 3.2 mph 3.2 mph 42 % 0.0 in
06:20 24.6 °F 10.8 °F 1021.9 in ENE 3.2 mph 3.2 mph 42 % 0.0 in
11:22 24.6 °F 10.8 °F 1021.9 in South 3.7 mph 3.7 mph 42 % 0.0 in
11:27 25.4 °F 11.2 °F 1021.9 in SW 5.6 mph 5.6 mph 41 % 0.0 in
11:32 25.7 °F 11.4 °F 1021.9 in SE 5.6 mph 5.6 mph 41 % 0.0 in
11:37 25.3 °F 10.7 °F 1021.9 in East 4.7 mph 4.7 mph 40 % 0.0 in
11:42 25.3 °F 11.1 °F 1021.9 in ENE 3.7 mph 3.7 mph 41 % 0.0 in
11:47 25.4 °F 10.8 °F 1021.9 in ENE 8.7 mph 8.7 mph 40 % 0.0 in
11:52 25.1 °F 10.6 °F 1021.9 in ESE 3.7 mph 3.7 mph 40 % 0.0 in
11:57 25.5 °F 10.9 °F 1021.9 in ESE 11.1 mph 11.1 mph 40 % 0.0 in
12:02 25.3 °F 10.7 °F 1021.9 in ENE 5.6 mph 5.6 mph 40 % 0.0 in
12:07 25.6 °F 11.0 °F 1021.9 in ESE 7.6 mph 7.6 mph 40 % 0.0 in
12:12 25.6 °F 11.0 °F 1021.9 in SSE 7.4 mph 7.4 mph 40 % 0.0 in
12:17 26.0 °F 11.3 °F 1021.9 in SW 9.3 mph 9.3 mph 40 % 0.0 in
12:19 26.3 °F 11.6 °F 1021.9 in SW 5.6 mph 5.6 mph 40 % 0.0 in
12:24 26.8 °F 12.1 °F 1022.9 in SSE 6.1 mph 6.1 mph 40 % 0.0 in
12:29 27.6 °F 12.4 °F 1022.9 in East 5.6 mph 5.6 mph 39 % 0.0 in
12:34 27.3 °F 12.1 °F 1022.9 in SSW 5.6 mph 5.6 mph 39 % 0.0 in
12:39 27.5 °F 11.9 °F 1022.9 in SSE 7.9 mph 7.9 mph 38 % 0.0 in
12:44 27.1 °F 11.6 °F 1022.9 in SSE 9.3 mph 9.3 mph 38 % 0.0 in
12:49 27.5 °F 11.9 °F 1022.9 in ENE 7.4 mph 7.4 mph 38 % 0.0 in
12:54 27.1 °F 11.6 °F 1021.9 in East 9.3 mph 9.3 mph 38 % 0.0 in
12:59 27.2 °F 12.1 °F 1021.9 in NE 5.3 mph 5.3 mph 39 % 0.0 in
13:04 26.9 °F 11.8 °F 1021.9 in ESE 7.4 mph 7.4 mph 39 % 0.0 in
13:09 26.9 °F 11.4 °F 1021.9 in WSW 3.2 mph 3.2 mph 38 % 0.0 in
13:14 27.0 °F 10.7 °F 1021.9 in ENE 7.4 mph 7.4 mph 36 % 0.0 in
13:19 27.1 °F 10.7 °F 1021.9 in SW 7.4 mph 7.4 mph 36 % 0.0 in
13:24 27.7 °F 11.3 °F 1021.9 in SW 3.7 mph 3.9 mph 36 % 0.0 in
13:29 28.2 °F 11.3 °F 1021.9 in SW 5.6 mph 5.6 mph 35 % 0.0 in
13:34 28.5 °F 10.7 °F 1021.9 in SSW 11.1 mph 11.1 mph 33 % 0.0 in
13:39 28.4 °F 10.6 °F 1020.9 in SW 9.3 mph 9.3 mph 33 % 0.0 in
13:44 28.0 °F 9.3 °F 1020.9 in West 11.1 mph 11.1 mph 31 % 0.0 in
13:49 28.4 °F 9.6 °F 1020.9 in West 9.3 mph 9.3 mph 31 % 0.0 in
13:54 28.8 °F 9.5 °F 1020.9 in West 15.1 mph 15.1 mph 30 % 0.0 in
13:59 28.6 °F 9.3 °F 1020.9 in South 9.3 mph 9.3 mph 30 % 0.0 in
14:04 28.7 °F 8.9 °F 1020.9 in West 18.5 mph 18.5 mph 29 % 0.0 in
14:09 28.6 °F 8.8 °F 1019.9 in WSW 10.3 mph 10.3 mph 29 % 0.0 in
14:14 28.6 °F 8.8 °F 1019.9 in West 9.3 mph 9.3 mph 29 % 0.0 in
14:19 28.5 °F 8.7 °F 1019.9 in SW 7.4 mph 7.4 mph 29 % 0.0 in
14:24 28.5 °F 8.2 °F 1019.9 in West 11.1 mph 11.1 mph 28 % 0.0 in
14:29 28.7 °F 8.4 °F 1019.9 in South 13.0 mph 13.0 mph 28 % 0.0 in
14:34 28.7 °F 8.4 °F 1019.9 in SW 11.1 mph 11.1 mph 28 % 0.0 in
14:39 28.5 °F 8.2 °F 1019.9 in SW 9.3 mph 9.3 mph 28 % 0.0 in
14:44 28.6 °F 8.3 °F 1019.9 in WSW 7.9 mph 7.9 mph 28 % 0.0 in
14:49 28.7 °F 8.4 °F 1019.9 in SSW 5.6 mph 5.6 mph 28 % 0.0 in
14:54 28.6 °F 8.3 °F 1019.9 in SW 16.7 mph 16.7 mph 28 % 0.0 in
14:55 28.6 °F 8.3 °F 1019.9 in WSW 16.7 mph 16.7 mph 28 % 0.0 in
15:00 28.5 °F 8.2 °F 1019.9 in SSW 11.9 mph 11.9 mph 28 % 0.0 in
15:05 28.8 °F 8.4 °F 1019.9 in SW 11.1 mph 11.1 mph 28 % 0.0 in
15:10 29.1 °F 8.2 °F 1018.8 in SW 9.3 mph 9.5 mph 27 % 0.0 in
15:15 28.8 °F 7.9 °F 1018.8 in SSW 7.6 mph 7.6 mph 27 % 0.0 in
15:20 28.4 °F 7.6 °F 1018.8 in SW 16.7 mph 16.7 mph 27 % 0.0 in
15:25 28.8 °F 7.9 °F 1018.8 in WSW 9.3 mph 9.5 mph 27 % 0.0 in
15:30 28.8 °F 7.9 °F 1018.8 in WSW 11.4 mph 11.4 mph 27 % 0.0 in
15:35 28.8 °F 7.9 °F 1018.8 in SW 14.8 mph 14.8 mph 27 % 0.0 in
15:45 29.0 °F 7.6 °F 1018.8 in SW 16.7 mph 16.7 mph 26 % 0.0 in
15:50 28.7 °F 7.3 °F 1018.8 in WSW 9.3 mph 9.3 mph 26 % 0.0 in
15:55 28.6 °F 7.2 °F 1018.8 in SSW 16.7 mph 16.7 mph 26 % 0.0 in
16:00 28.5 °F 7.1 °F 1018.8 in SSW 11.1 mph 11.1 mph 26 % 0.0 in
16:05 28.3 °F 6.9 °F 1018.8 in South 14.8 mph 14.8 mph 26 % 0.0 in
16:10 28.1 °F 6.8 °F 1018.8 in South 11.1 mph 11.1 mph 26 % 0.0 in
16:15 28.2 °F 6.9 °F 1018.8 in WNW 15.6 mph 15.6 mph 26 % 0.0 in
16:20 28.3 °F 6.4 °F 1018.8 in West 16.1 mph 16.1 mph 25 % 0.0 in
16:21 28.1 °F 6.2 °F 1018.8 in SW 13.0 mph 13.0 mph 25 % 0.0 in
16:26 27.9 °F 6.6 °F 1018.8 in South 13.0 mph 13.0 mph 26 % 0.0 in
16:31 27.6 °F 6.4 °F 1018.8 in SW 20.4 mph 20.4 mph 26 % 0.0 in
16:36 27.4 °F 6.2 °F 1018.8 in WSW 11.1 mph 11.1 mph 26 % 0.0 in
16:41 27.3 °F 6.1 °F 1018.8 in WSW 9.0 mph 9.0 mph 26 % 0.0 in
16:46 26.8 °F 5.1 °F 1018.8 in SW 13.0 mph 13.0 mph 25 % 0.0 in
16:51 26.8 °F 5.1 °F 1018.8 in WSW 13.0 mph 13.0 mph 25 % 0.0 in
16:56 26.6 °F 4.9 °F 1018.8 in WSW 13.0 mph 13.0 mph 25 % 0.0 in
17:01 26.6 °F 4.9 °F 1018.8 in WSW 13.0 mph 13.0 mph 25 % 0.0 in
17:06 26.8 °F 5.7 °F 1018.8 in WSW 9.3 mph 9.3 mph 26 % 0.0 in
17:11 26.7 °F 5.6 °F 1017.8 in South 9.3 mph 9.3 mph 26 % 0.0 in
17:16 26.7 °F 5.1 °F 1017.8 in SW 11.1 mph 11.1 mph 25 % 0.0 in
17:18 26.6 °F 4.9 °F 1017.8 in South 9.3 mph 9.3 mph 25 % 0.0 in
17:23 26.4 °F 4.8 °F 1017.8 in SSW 7.4 mph 7.4 mph 25 % 0.0 in
17:28 26.5 °F 5.4 °F 1017.8 in WSW 11.1 mph 11.1 mph 26 % 0.0 in
17:33 26.0 °F 5.0 °F 1017.8 in South 11.1 mph 11.1 mph 26 % 0.0 in
17:38 26.0 °F 4.4 °F 1017.8 in SW 10.3 mph 10.3 mph 25 % 0.0 in
17:43 25.9 °F 4.9 °F 1017.8 in WSW 13.0 mph 13.0 mph 26 % 0.0 in
17:48 25.8 °F 4.8 °F 1017.8 in SW 13.0 mph 13.0 mph 26 % 0.0 in
17:53 25.6 °F 4.7 °F 1016.8 in West 7.4 mph 7.4 mph 26 % 0.0 in
17:58 25.6 °F 4.7 °F 1016.8 in SSW 10.0 mph 10.0 mph 26 % 0.0 in
18:03 25.4 °F 4.5 °F 1016.8 in SSW 11.1 mph 11.1 mph 26 % 0.0 in
18:08 25.3 °F 4.4 °F 1016.8 in SSW 9.3 mph 9.3 mph 26 % 0.0 in
18:13 25.2 °F 4.3 °F 1016.8 in SSE 9.3 mph 9.3 mph 26 % 0.0 in
18:18 25.2 °F 4.3 °F 1016.8 in WSW 9.3 mph 9.3 mph 26 % 0.0 in
18:23 25.1 °F 4.2 °F 1015.8 in SW 7.4 mph 7.4 mph 26 % 0.0 in
18:28 25.1 °F 4.8 °F 1015.8 in SW 5.6 mph 5.6 mph 27 % 0.0 in
18:33 25.0 °F 4.7 °F 1015.8 in SW 5.6 mph 5.6 mph 27 % 0.0 in
18:38 24.9 °F 5.1 °F 1015.8 in SW 7.4 mph 7.4 mph 28 % 0.0 in
18:43 24.7 °F 4.9 °F 1015.8 in SSW 5.6 mph 5.6 mph 28 % 0.0 in
18:48 24.6 °F 4.9 °F 1015.8 in SSW 9.3 mph 9.3 mph 28 % 0.0 in
18:53 24.3 °F 4.6 °F 1015.8 in SW 7.4 mph 7.4 mph 28 % 0.0 in
18:58 24.2 °F 4.6 °F 1015.8 in SW 5.6 mph 5.6 mph 28 % 0.0 in
19:03 24.2 °F 4.6 °F 1015.8 in SSW 7.4 mph 7.4 mph 28 % 0.0 in
19:08 24.1 °F 4.4 °F 1015.8 in SSW 3.7 mph 3.7 mph 28 % 0.0 in
19:13 24.0 °F 4.3 °F 1015.8 in SW 7.4 mph 7.4 mph 28 % 0.0 in
19:18 23.8 °F 4.2 °F 1015.8 in SW 11.1 mph 11.1 mph 28 % 0.0 in
19:23 23.7 °F 4.6 °F 1015.8 in WSW 5.8 mph 5.8 mph 29 % 0.0 in
19:28 23.8 °F 4.7 °F 1015.8 in SW 7.4 mph 7.4 mph 29 % 0.0 in
19:33 23.7 °F 4.6 °F 1015.8 in SSW 3.7 mph 3.9 mph 29 % 0.0 in
19:38 23.5 °F 4.4 °F 1015.8 in SW 5.6 mph 5.6 mph 29 % 0.0 in
19:43 23.4 °F 4.3 °F 1015.8 in SW 7.4 mph 7.4 mph 29 % 0.0 in
19:45 17.9 °F 7.3 °F 1015.8 in Calm   1.6 mph 50 % 0.0 in
19:48 23.3 °F 4.3 °F 1015.8 in SW 5.6 mph 5.6 mph 29 % 0.0 in
19:53 23.1 °F 4.1 °F 1015.8 in West 7.4 mph 7.4 mph 29 % 0.0 in
19:55 17.7 °F 7.2 °F 1015.8 in Calm   4.8 mph 50 % 0.0 in
19:58 23.0 °F 4.0 °F 1015.8 in SW 5.6 mph 5.6 mph 29 % 0.0 in
20:03 23.0 °F 4.5 °F 1015.8 in SSW 5.6 mph 5.6 mph 30 % 0.0 in
20:05 17.3 °F 7.1 °F 1015.8 in Calm     51 % 0.0 in
20:08 22.8 °F 4.8 °F 1015.8 in WSW 7.4 mph 7.4 mph 31 % 0.0 in
20:13 22.6 °F 4.6 °F 1015.8 in SW 6.4 mph 6.4 mph 31 % 0.0 in
20:15 17.1 °F 6.9 °F 1014.8 in East 1.6 mph 1.6 mph 51 % 0.0 in
20:18 22.5 °F 4.5 °F 1015.8 in West 3.7 mph 3.9 mph 31 % 0.0 in
20:23 22.3 °F 4.3 °F 1015.8 in WSW 5.0 mph 5.0 mph 31 % 0.0 in
20:25 16.9 °F 7.0 °F 1014.8 in Calm   1.6 mph 52 % 0.0 in
20:28 22.3 °F 4.8 °F 1015.8 in SW 5.6 mph 5.6 mph 32 % 0.0 in
20:33 22.1 °F 4.6 °F 1015.8 in SW 3.7 mph 3.7 mph 32 % 0.0 in
20:35 17.0 °F 7.1 °F 1014.8 in Calm   1.6 mph 52 % 0.0 in
20:38 21.9 °F 4.4 °F 1015.8 in SW 7.4 mph 7.4 mph 32 % 0.0 in
20:43 21.8 °F 4.8 °F 1015.8 in SW 3.7 mph 3.7 mph 33 % 0.0 in
20:45 16.8 °F 7.4 °F 1014.8 in Calm   1.6 mph 54 % 0.0 in
20:48 21.7 °F 4.7 °F 1015.8 in WSW 5.6 mph 5.6 mph 33 % 0.0 in
20:53 21.6 °F 5.1 °F 1015.8 in SW 5.6 mph 5.6 mph 34 % 0.0 in
20:55 16.7 °F 7.3 °F 1014.8 in Calm     54 % 0.0 in
20:58 21.4 °F 4.9 °F 1015.8 in SW 5.6 mph 5.6 mph 34 % 0.0 in
21:03 21.3 °F 5.2 °F 1015.8 in SW 3.7 mph 3.7 mph 35 % 0.0 in
21:08 21.2 °F 5.1 °F 1015.8 in WSW 3.7 mph 3.7 mph 35 % 0.0 in
21:13 21.1 °F 5.1 °F 1015.8 in West 4.2 mph 4.2 mph 35 % 0.0 in
21:15 16.5 °F 7.7 °F 1014.8 in Calm   1.6 mph 56 % 0.0 in
21:18 21.1 °F 5.1 °F 1015.8 in West 3.7 mph 3.7 mph 35 % 0.0 in
21:23 21.0 °F 5.3 °F 1015.8 in SW 3.7 mph 3.7 mph 36 % 0.0 in
21:25 16.3 °F 7.5 °F 1014.8 in Calm   1.6 mph 56 % 0.0 in
21:28 20.9 °F 5.3 °F 1015.8 in WSW 3.7 mph 3.7 mph 36 % 0.0 in
21:33 20.8 °F 5.2 °F 1015.8 in West 3.7 mph 3.7 mph 36 % 0.0 in
21:35 16.1 °F 7.6 °F 1014.8 in Calm     57 % 0.0 in
21:38 20.7 °F 5.1 °F 1015.8 in West 3.7 mph 3.7 mph 36 % 0.0 in
21:43 20.6 °F 5.4 °F 1015.8 in WSW 3.7 mph 3.7 mph 37 % 0.0 in
21:45 16.0 °F 7.7 °F 1014.8 in Calm     58 % 0.0 in
21:48 20.5 °F 5.3 °F 1015.8 in West 3.2 mph 3.2 mph 37 % 0.0 in
21:53 20.4 °F 5.6 °F 1015.8 in WSW 1.9 mph   38 % 0.0 in
21:55 15.9 °F 7.7 °F 1014.8 in Calm   1.6 mph 58 % 0.0 in
21:58 20.3 °F 5.5 °F 1015.8 in WSW 1.4 mph   38 % 0.0 in
22:03 20.2 °F 5.4 °F 1015.8 in SW 1.9 mph   38 % 0.0 in
22:05 16.0 °F 8.0 °F 1014.8 in NNW 1.6 mph 3.2 mph 59 % 0.0 in
22:08 20.1 °F 5.7 °F 1015.8 in Calm     39 % 0.0 in
22:13 20.0 °F 5.6 °F 1015.8 in West 1.9 mph   39 % 0.0 in
22:15 15.9 °F 7.9 °F 1014.8 in Calm     59 % 0.0 in
22:18 20.0 °F 5.6 °F 1015.8 in WNW 1.9 mph   39 % 0.0 in
22:23 19.9 °F 5.9 °F 1014.8 in SW 1.9 mph 1.9 mph 40 % 0.0 in
22:25 15.7 °F 7.9 °F 1013.8 in Calm     60 % 0.0 in
22:28 19.8 °F 5.8 °F 1014.8 in SW 3.7 mph 3.7 mph 40 % 0.0 in
22:33 19.7 °F 6.1 °F 1014.8 in SW 4.2 mph 4.2 mph 41 % 0.0 in
22:35 15.5 °F 7.8 °F 1013.8 in Calm     60 % 0.0 in
22:38 19.6 °F 6.0 °F 1015.8 in WSW 3.7 mph 3.7 mph 41 % 0.0 in
22:43 19.6 °F 6.0 °F 1015.8 in WSW 5.6 mph 5.6 mph 41 % 0.0 in
22:45 15.2 °F 7.5 °F 1013.8 in NE 3.2 mph 3.2 mph 60 % 0.0 in
22:48 19.4 °F 5.8 °F 1015.8 in SW 3.7 mph   41 % 0.0 in
22:53 19.3 °F 6.1 °F 1015.8 in WSW 1.9 mph 1.9 mph 42 % 0.0 in
22:55 14.9 °F 7.7 °F 1014.8 in Calm   3.2 mph 62 % 0.0 in
22:58 19.2 °F 5.9 °F 1015.8 in WSW 3.7 mph 3.7 mph 42 % 0.0 in
23:03 19.1 °F 5.9 °F 1015.8 in SW 3.7 mph 3.7 mph 42 % 0.0 in
23:05 14.7 °F 7.5 °F 1014.8 in Calm     62 % 0.0 in
23:08 19.0 °F 5.8 °F 1015.8 in SW 3.9 mph 3.9 mph 42 % 0.0 in
23:13 19.0 °F 6.1 °F 1015.8 in WSW 3.7 mph 3.7 mph 43 % 0.0 in
23:15 14.6 °F 7.6 °F 1014.8 in Calm     63 % 0.0 in
23:18 18.8 °F 6.3 °F 1015.8 in SW 3.7 mph 3.7 mph 44 % 0.0 in
23:23 18.8 °F 6.3 °F 1015.8 in WSW 4.2 mph 4.2 mph 44 % 0.0 in
23:25 14.5 °F 7.6 °F 1014.8 in Calm   4.8 mph 63 % 0.0 in
23:28 18.7 °F 6.2 °F 1015.8 in WSW 3.7 mph 3.7 mph 44 % 0.0 in
23:33 18.7 °F 6.5 °F 1015.8 in WSW 3.7 mph 3.7 mph 45 % 0.0 in
23:35 14.4 °F 7.4 °F 1014.8 in Calm   3.2 mph 63 % 0.0 in
23:38 18.6 °F 6.4 °F 1015.8 in SW 3.7 mph 3.7 mph 45 % 0.0 in
23:43 18.6 °F 6.4 °F 1015.8 in WSW 3.7 mph 3.7 mph 45 % 0.0 in
23:45 14.4 °F 7.4 °F 1014.8 in Calm     63 % 0.0 in
23:53 18.6 °F 6.7 °F 1015.8 in West 2.6 mph 2.6 mph 46 % 0.0 in
23:55 14.2 °F 7.3 °F 1014.8 in WSW 1.6 mph 3.2 mph 63 % 0.0 in
23:58 18.6 °F 6.7 °F 1015.8 in West 1.9 mph   46 % 0.0 in
Meteo Sesrovires
Elogis d' Weather Underground - 1.5 mb

Guio original per  Jim McMurry - jmcmurry@mwt.net Adaptat per a la plantilla per  Wim van der Kuil - Leuven-Template.eu

Trobareu la nostra informacio del temps tambe a:

Weather Underground

AWEKAS